Time;durP1;ratioP1;P1;durP2;ratioP2;P2;SDS_P1;SDS_P2;PMS_P1;PMS_P2;Temp;Humidity;BMP_temperature;BMP_pressure;BME280_temperature;BME280_humidity;BME280_pressure;Samples;Min_cycle;Max_cycle;Signal;HPM_P1;HPM_P2
2023/05/23 00:01:36;;;;;;;2.65;1.83;;;16.70;68.40;16.80;100164.00;;;;4986280;27;87981;-68
2023/05/23 00:04:03;;;;;;;2.35;2.08;;;16.70;68.40;16.80;100164.00;;;;5004254;27;88137;-68
2023/05/23 00:06:29;;;;;;;1.52;1.30;;;16.70;68.50;16.90;100166.00;;;;5006143;27;100406;-68
2023/05/23 00:08:55;;;;;;;3.38;1.77;;;16.70;68.60;16.90;100164.00;;;;5006648;27;87782;-68
2023/05/23 00:11:25;;;;;;;2.83;1.92;;;16.80;68.60;17.00;100156.00;;;;5005687;27;105030;-68
2023/05/23 00:13:52;;;;;;;2.90;1.92;;;16.80;68.80;17.00;100155.00;;;;4985465;27;88877;-69
2023/05/23 00:16:18;;;;;;;1.95;1.45;;;16.90;68.80;17.00;100160.00;;;;4988620;27;87912;-68
2023/05/23 00:18:44;;;;;;;2.58;1.92;;;16.90;68.90;17.10;100160.00;;;;5008683;27;91030;-68
2023/05/23 00:21:12;;;;;;;1.88;1.67;;;17.00;69.00;17.10;100165.00;;;;5006856;27;89187;-68
2023/05/23 00:23:41;;;;;;;1.35;1.10;;;17.00;68.90;17.20;100159.00;;;;5007641;27;88945;-69
2023/05/23 00:26:10;;;;;;;2.30;1.95;;;17.00;69.00;17.20;100173.00;;;;5007637;27;87940;-68
2023/05/23 00:28:37;;;;;;;3.90;1.85;;;17.10;69.10;17.20;100165.00;;;;5005904;27;87645;-68
2023/05/23 00:31:02;;;;;;;2.25;1.85;;;17.10;69.10;17.20;100166.00;;;;4990940;27;90009;-69
2023/05/23 00:33:28;;;;;;;2.55;1.80;;;17.10;69.30;17.20;100171.00;;;;4989296;27;90039;-69
2023/05/23 00:35:54;;;;;;;4.88;1.95;;;17.10;69.40;17.20;100179.00;;;;5007054;27;87575;-68
2023/05/23 00:38:20;;;;;;;1.50;1.40;;;17.10;69.50;17.20;100184.00;;;;5006370;27;95974;-68
2023/05/23 00:40:47;;;;;;;2.15;1.50;;;17.10;69.70;17.20;100176.00;;;;5003795;27;89175;-68
2023/05/23 00:43:12;;;;;;;2.47;2.15;;;17.10;70.00;17.20;100181.00;;;;5003075;27;87931;-68
2023/05/23 00:45:38;;;;;;;1.73;1.63;;;17.10;70.10;17.20;100174.00;;;;5006571;27;111912;-68
2023/05/23 00:48:05;;;;;;;2.28;1.52;;;17.10;70.30;17.20;100171.00;;;;5003166;27;107414;-68
2023/05/23 00:50:32;;;;;;;3.63;1.75;;;17.10;70.80;17.10;100164.00;;;;4985831;27;116464;-69
2023/05/23 00:52:59;;;;;;;2.00;1.50;;;17.00;70.80;17.10;100161.00;;;;4990570;27;87968;-68
2023/05/23 00:55:25;;;;;;;2.90;1.63;;;17.00;71.00;17.10;100166.00;;;;5002191;27;89173;-68
2023/05/23 00:57:54;;;;;;;2.13;1.85;;;17.00;71.10;17.10;100172.00;;;;4989873;27;107843;-68
2023/05/23 01:00:22;;;;;;;1.77;1.38;;;17.00;71.30;17.10;100172.00;;;;5003150;27;89038;-68
2023/05/23 01:02:50;;;;;;;1.75;1.45;;;17.00;71.30;17.10;100170.00;;;;5006580;27;89258;-69
2023/05/23 01:05:17;;;;;;;2.00;1.73;;;17.00;71.30;17.10;100172.00;;;;5004889;27;87913;-69
2023/05/23 01:07:49;;;;;;;3.97;1.92;;;17.00;71.50;17.10;100165.00;;;;4995586;27;88316;-69
2023/05/23 01:10:18;;;;;;;4.50;1.42;;;17.00;71.70;17.10;100166.00;;;;5006544;27;89204;-68
2023/05/23 01:13:05;;;;;;;3.15;1.88;;;17.00;71.70;17.20;100165.00;;;;5005481;27;104697;-68
2023/05/23 01:16:06;;;;;;;1.60;1.50;;;17.10;72.00;17.10;100185.00;;;;4994176;27;89328;-69
2023/05/23 01:18:46;;;;;;;1.85;1.55;;;17.10;72.10;17.10;100176.00;;;;4991300;27;87793;-68
2023/05/23 01:21:16;;;;;;;2.33;1.85;;;17.10;72.40;17.10;100177.00;;;;4986613;27;103809;-68
2023/05/23 01:24:11;;;;;;;4.10;2.33;;;17.10;72.60;17.10;100171.00;;;;5001192;27;108058;-68
2023/05/23 01:27:07;;;;;;;2.85;1.83;;;17.00;72.90;17.10;100175.00;;;;4980925;28;103217;-68
2023/05/23 01:29:37;;;;;;;5.55;1.85;;;17.00;73.10;17.10;100174.00;;;;4995458;27;102015;-69
2023/05/23 01:32:06;;;;;;;1.98;1.88;;;17.00;73.40;17.00;100166.00;;;;5005071;27;88039;-68
2023/05/23 01:34:35;;;;;;;4.00;1.90;;;16.90;73.60;17.00;100171.00;;;;4985799;27;89776;-68
2023/05/23 01:37:01;;;;;;;3.40;2.35;;;16.90;73.80;17.00;100168.00;;;;5002912;27;107489;-68
2023/05/23 01:39:27;;;;;;;2.80;1.80;;;16.90;74.00;16.90;100156.00;;;;5003720;27;107035;-68
2023/05/23 01:41:53;;;;;;;4.07;2.95;;;16.80;75.00;16.90;100157.00;;;;5002971;27;118723;-68
2023/05/23 01:44:20;;;;;;;3.95;2.28;;;16.80;74.50;16.80;100157.00;;;;4987321;27;87996;-68
2023/05/23 01:46:46;;;;;;;4.00;2.22;;;16.70;74.70;16.80;100148.00;;;;4988495;27;94980;-69
2023/05/23 01:49:15;;;;;;;2.50;1.80;;;16.70;75.00;16.70;100154.00;;;;4987969;27;107632;-69
2023/05/23 01:51:42;;;;;;;2.67;2.05;;;16.60;75.10;16.70;100141.00;;;;4982068;27;117124;-68
2023/05/23 01:54:13;;;;;;;3.92;2.00;;;16.60;75.20;16.70;100137.00;;;;4982760;28;88223;-68
2023/05/23 01:56:40;;;;;;;3.83;2.25;;;16.60;75.50;16.70;100137.00;;;;4973979;28;87921;-68
2023/05/23 01:59:06;;;;;;;2.35;2.15;;;16.60;75.60;16.60;100129.00;;;;4980811;28;107447;-68
2023/05/23 02:01:32;;;;;;;4.28;2.65;;;16.50;75.70;16.60;100130.00;;;;4981664;28;117844;-68
2023/05/23 02:03:58;;;;;;;5.13;2.03;;;16.50;76.00;16.50;100127.00;;;;4982218;28;116618;-68
2023/05/23 02:06:23;;;;;;;2.58;1.52;;;16.50;76.20;16.50;100133.00;;;;4984675;28;110998;-68
2023/05/23 02:08:49;;;;;;;2.42;1.75;;;16.40;76.40;16.50;100126.00;;;;4982530;28;109254;-68
2023/05/23 02:11:15;;;;;;;19.17;2.72;;;16.40;76.60;16.50;100126.00;;;;4977880;28;121020;-68
2023/05/23 02:13:40;;;;;;;2.42;2.22;;;16.40;76.90;16.50;100128.00;;;;4984320;28;118304;-68
2023/05/23 02:16:06;;;;;;;2.20;1.77;;;16.40;77.30;16.50;100133.00;;;;4984540;28;110026;-68
2023/05/23 02:18:32;;;;;;;4.03;2.38;;;16.40;78.40;16.40;100133.00;;;;4986155;28;87939;-68
2023/05/23 02:21:00;;;;;;;2.08;1.48;;;16.40;78.20;16.40;100134.00;;;;4981456;28;117602;-68
2023/05/23 02:23:26;;;;;;;2.97;2.67;;;16.30;78.60;16.30;100143.00;;;;4981662;28;88728;-68
2023/05/23 02:25:52;;;;;;;1.92;1.77;;;16.30;79.40;16.30;100147.00;;;;4984410;28;110309;-67
2023/05/23 02:28:18;;;;;;;1.88;1.65;;;16.20;79.80;16.20;100149.00;;;;4981002;28;108271;-67
2023/05/23 02:30:43;;;;;;;3.78;2.30;;;16.10;80.60;16.10;100139.00;;;;4984317;28;117165;-68
2023/05/23 02:33:09;;;;;;;3.17;1.98;;;16.10;81.30;16.10;100137.00;;;;4987242;28;88026;-69
2023/05/23 02:35:35;;;;;;;5.47;2.25;;;16.10;82.70;16.10;100127.00;;;;4982917;28;88819;-70
2023/05/23 02:38:00;;;;;;;3.92;2.83;;;16.00;84.10;16.00;100127.00;;;;4981967;28;109029;-69
2023/05/23 02:40:26;;;;;;;3.28;2.28;;;16.00;85.70;16.00;100125.00;;;;4973604;28;115884;-68
2023/05/23 02:42:52;;;;;;;3.28;1.85;;;16.00;88.00;16.00;100130.00;;;;4980668;28;117724;-68
2023/05/23 02:45:17;;;;;;;3.00;2.42;;;15.90;88.60;16.00;100127.00;;;;4973114;28;110543;-69
2023/05/23 02:47:43;;;;;;;3.53;2.05;;;15.90;89.90;16.00;100129.00;;;;4964031;28;108821;-69
2023/05/23 02:50:09;;;;;;;2.35;1.92;;;15.90;90.30;16.00;100125.00;;;;4972976;28;117144;-69
2023/05/23 02:52:36;;;;;;;1.67;1.40;;;15.90;90.90;16.00;100119.00;;;;4971615;28;109090;-69
2023/05/23 02:55:01;;;;;;;3.95;1.83;;;15.90;91.60;16.00;100110.00;;;;4968454;28;108464;-69
2023/05/23 02:57:27;;;;;;;1.83;1.27;;;15.90;91.90;16.10;100125.00;;;;4984859;27;88249;-69
2023/05/23 02:59:53;;;;;;;2.33;1.73;;;16.00;92.30;16.10;100105.00;;;;4985052;27;119552;-69
2023/05/23 03:02:20;;;;;;;3.88;2.35;;;16.00;92.70;16.10;100119.00;;;;4986122;28;88901;-69
2023/05/23 03:04:45;;;;;;;1.15;1.13;;;16.00;93.20;16.10;100113.00;;;;4971661;27;87762;-69
2023/05/23 03:07:12;;;;;;;3.08;2.22;;;16.00;93.60;16.10;100105.00;;;;4982375;27;109017;-69
2023/05/23 03:09:38;;;;;;;1.45;1.33;;;16.00;94.10;16.20;100111.00;;;;4983054;28;87969;-70
2023/05/23 03:12:04;;;;;;;2.67;2.17;;;16.10;94.40;16.20;100100.00;;;;4984501;28;87766;-69
2023/05/23 03:14:30;;;;;;;2.30;1.73;;;16.10;94.80;16.20;100102.00;;;;4982471;28;89204;-70
2023/05/23 03:16:56;;;;;;;2.67;1.73;;;16.10;95.20;16.30;100089.00;;;;4983510;28;108148;-69
2023/05/23 03:19:21;;;;;;;3.70;2.08;;;16.20;95.60;16.30;100094.00;;;;4982160;28;89168;-69
2023/05/23 03:21:49;;;;;;;2.00;1.55;;;16.20;96.00;16.30;100091.00;;;;4983423;28;117309;-69
2023/05/23 03:24:14;;;;;;;2.53;2.33;;;16.20;96.20;16.30;100093.00;;;;4988780;28;89000;-71
2023/05/23 03:26:40;;;;;;;2.85;2.00;;;16.20;96.60;16.40;100090.00;;;;4988302;28;88076;-68
2023/05/23 03:29:06;;;;;;;2.65;1.83;;;16.30;96.90;16.40;100077.00;;;;4987097;28;116758;-68
2023/05/23 03:31:31;;;;;;;5.55;2.55;;;16.30;97.50;16.40;100077.00;;;;4987875;28;88257;-68
2023/05/23 03:33:57;;;;;;;3.47;2.13;;;16.30;98.00;16.40;100068.00;;;;4986301;27;110365;-69
2023/05/23 03:36:27;;;;;;;3.20;1.73;;;16.30;98.60;16.40;100068.00;;;;4985601;28;107674;-69
2023/05/23 03:38:52;;;;;;;2.05;1.83;;;16.30;98.80;16.40;100075.00;;;;4986526;27;88980;-69
2023/05/23 03:41:18;;;;;;;1.92;1.73;;;16.30;99.20;16.50;100073.00;;;;4986117;28;117562;-69
2023/05/23 03:43:44;;;;;;;2.72;1.83;;;16.30;99.30;16.50;100073.00;;;;4988587;28;87808;-70
2023/05/23 03:46:10;;;;;;;2.95;2.22;;;16.40;99.50;16.50;100073.00;;;;4970475;28;87974;-69
2023/05/23 03:48:35;;;;;;;3.78;1.95;;;16.40;99.70;16.60;100076.00;;;;4984788;28;89883;-69
2023/05/23 03:51:01;;;;;;;2.95;2.10;;;16.40;99.80;16.60;100084.00;;;;4993052;27;117463;-69
2023/05/23 03:53:27;;;;;;;2.85;2.03;;;16.50;99.90;16.60;100083.00;;;;5006495;27;88135;-69
2023/05/23 03:55:53;;;;;;;3.55;1.83;;;16.50;99.90;16.60;100086.00;;;;5009202;27;94837;-69
2023/05/23 03:58:19;;;;;;;2.42;1.52;;;16.50;99.90;16.60;100086.00;;;;5005784;27;117633;-69
2023/05/23 04:00:46;;;;;;;4.60;2.67;;;16.50;99.90;16.60;100090.00;;;;5006686;27;88732;-69
2023/05/23 04:03:14;;;;;;;3.35;2.25;;;16.50;99.90;16.60;100085.00;;;;5007717;27;89808;-70
2023/05/23 04:05:40;;;;;;;2.88;2.53;;;16.50;99.90;16.60;100101.00;;;;4990481;27;88199;-69
2023/05/23 04:08:05;;;;;;;1.70;1.60;;;16.50;99.90;16.60;100102.00;;;;5006804;27;88244;-69
2023/05/23 04:10:31;;;;;;;2.42;1.70;;;16.50;99.90;16.70;100112.00;;;;4987072;27;115726;-69
2023/05/23 04:12:57;;;;;;;6.03;2.08;;;16.60;99.90;16.70;100107.00;;;;5000379;27;111223;-69
2023/05/23 04:15:23;;;;;;;4.75;2.28;;;16.60;99.90;16.70;100099.00;;;;4995386;27;88096;-69
2023/05/23 04:17:50;;;;;;;2.22;1.73;;;16.60;99.90;16.70;100103.00;;;;5002445;27;88839;-69
2023/05/23 04:20:16;;;;;;;3.83;2.13;;;16.60;99.90;16.70;100110.00;;;;5006681;27;88734;-69
2023/05/23 04:22:42;;;;;;;3.08;2.25;;;16.60;99.90;16.70;100106.00;;;;5005195;27;110084;-69
2023/05/23 04:25:08;;;;;;;2.72;2.00;;;16.60;99.90;16.70;100110.00;;;;5004370;27;88369;-69
2023/05/23 04:27:34;;;;;;;4.97;2.35;;;16.60;99.90;16.70;100115.00;;;;5008977;27;88109;-69
2023/05/23 04:30:00;;;;;;;2.03;1.83;;;16.60;99.90;16.80;100106.00;;;;4986856;27;117181;-69
2023/05/23 04:32:26;;;;;;;3.13;1.67;;;16.60;99.90;16.80;100103.00;;;;5005222;27;87805;-69
2023/05/23 04:34:52;;;;;;;6.18;2.35;;;16.70;99.90;16.80;100105.00;;;;5004891;27;89020;-69
2023/05/23 04:37:24;;;;;;;3.03;1.85;;;16.60;99.90;16.80;100097.00;;;;5004631;27;89252;-69
2023/05/23 04:39:51;;;;;;;2.92;2.53;;;16.70;99.90;16.80;100092.00;;;;5004197;27;89846;-70
2023/05/23 04:42:17;;;;;;;2.53;1.77;;;16.70;99.90;16.80;100102.00;;;;5001620;27;88118;-69
2023/05/23 04:44:43;;;;;;;2.53;2.22;;;16.80;99.90;16.90;100097.00;;;;5001721;27;108625;-69
2023/05/23 04:47:08;;;;;;;2.55;2.35;;;16.80;99.90;16.90;100108.00;;;;5003723;27;116726;-69
2023/05/23 04:49:36;;;;;;;3.15;2.28;;;16.80;99.90;16.90;100101.00;;;;5002309;27;88961;-70
2023/05/23 04:52:02;;;;;;;5.38;3.15;;;16.80;99.90;16.90;100104.00;;;;5001429;27;87998;-71
2023/05/23 04:54:27;;;;;;;2.92;2.35;;;16.80;99.90;16.90;100115.00;;;;4990188;27;108662;-71
2023/05/23 04:56:53;;;;;;;2.42;1.88;;;16.80;99.90;16.90;100112.00;;;;5001723;27;117837;-69
2023/05/23 04:59:19;;;;;;;4.00;2.38;;;16.80;99.90;16.90;100117.00;;;;4999709;27;117585;-68
2023/05/23 05:01:44;;;;;;;2.40;2.05;;;16.80;99.90;17.00;100112.00;;;;5000104;27;109628;-68
2023/05/23 05:04:10;;;;;;;1.88;1.77;;;16.80;99.90;17.00;100121.00;;;;5000231;27;109407;-68
2023/05/23 05:06:37;;;;;;;2.08;1.67;;;16.90;99.90;17.00;100122.00;;;;5000658;27;118358;-67
2023/05/23 05:09:02;;;;;;;3.35;1.83;;;16.90;99.90;17.10;100108.00;;;;5001452;27;88614;-69
2023/05/23 05:11:28;;;;;;;3.50;1.75;;;16.90;99.90;17.10;100118.00;;;;5000869;27;101916;-69
2023/05/23 05:13:54;;;;;;;2.35;1.63;;;17.20;99.90;17.20;100105.00;;;;5001891;27;108909;-69
2023/05/23 05:16:25;;;;;;;3.75;1.92;;;17.00;99.90;17.30;100113.00;;;;4985920;27;88894;-68
2023/05/23 05:18:51;;;;;;;2.08;1.50;;;17.10;99.90;17.40;100109.00;;;;4995202;27;87487;-69
2023/05/23 05:21:17;;;;;;;2.20;1.63;;;17.20;99.90;17.50;100111.00;;;;4970732;27;109816;-69
2023/05/23 05:23:42;;;;;;;2.28;1.77;;;17.30;99.90;17.60;100108.00;;;;5003705;27;108072;-68
2023/05/23 05:26:08;;;;;;;2.88;1.95;;;17.40;99.90;17.60;100108.00;;;;5001651;27;119194;-69
2023/05/23 05:28:34;;;;;;;3.30;2.00;;;17.50;99.90;17.70;100105.00;;;;4984425;27;118628;-69
2023/05/23 05:31:03;;;;;;;3.42;1.92;;;17.50;99.90;17.80;100119.00;;;;5002324;27;95719;-69
2023/05/23 05:33:34;;;;;;;4.47;2.15;;;17.60;99.90;17.80;100118.00;;;;5003328;27;87812;-69
2023/05/23 05:36:05;;;;;;;2.00;1.88;;;17.70;99.90;17.90;100117.00;;;;5003009;27;88182;-68
2023/05/23 05:38:31;;;;;;;2.38;1.58;;;17.70;99.90;17.90;100114.00;;;;4978022;28;88028;-68
2023/05/23 05:40:56;;;;;;;4.38;2.45;;;17.70;99.90;18.00;100106.00;;;;5000592;27;87919;-70
2023/05/23 05:43:22;;;;;;;2.90;1.88;;;17.80;99.90;18.00;100115.00;;;;5001107;27;108515;-70
2023/05/23 05:45:48;;;;;;;4.75;2.55;;;17.90;99.90;18.00;100110.00;;;;4988756;27;108314;-69
2023/05/23 05:48:13;;;;;;;2.67;2.10;;;17.90;99.90;18.00;100115.00;;;;4992474;27;117174;-69
2023/05/23 05:50:39;;;;;;;3.88;2.30;;;17.90;99.90;18.10;100114.00;;;;5001202;27;108547;-68
2023/05/23 05:53:06;;;;;;;2.30;1.67;;;18.00;99.90;18.10;100115.00;;;;5000690;27;101216;-68
2023/05/23 05:55:32;;;;;;;4.00;2.53;;;18.00;99.90;18.20;100111.00;;;;4999673;27;88852;-68
2023/05/23 05:57:58;;;;;;;3.58;2.67;;;18.00;99.90;18.20;100113.00;;;;5003117;27;108001;-70
2023/05/23 06:00:24;;;;;;;4.03;3.05;;;18.10;99.90;18.30;100113.00;;;;4994128;27;109609;-71
2023/05/23 06:02:56;;;;;;;2.42;2.03;;;18.10;99.90;18.40;100111.00;;;;4982154;27;96539;-69
2023/05/23 06:05:22;;;;;;;2.53;2.28;;;18.20;99.90;18.50;100122.00;;;;5001927;27;89098;-69
2023/05/23 06:07:49;;;;;;;2.72;2.33;;;18.30;99.90;18.60;100129.00;;;;4998980;27;109621;-69
2023/05/23 06:10:15;;;;;;;2.38;1.80;;;18.40;99.90;18.70;100121.00;;;;5000021;27;87838;-69
2023/05/23 06:12:40;;;;;;;3.47;2.90;;;18.50;99.90;18.80;100120.00;;;;5003237;27;87953;-69
2023/05/23 06:15:08;;;;;;;6.75;2.63;;;18.60;99.90;18.90;100129.00;;;;4991528;27;108018;-69
2023/05/23 06:17:34;;;;;;;1.67;1.58;;;18.80;99.90;19.00;100135.00;;;;4995066;27;89704;-71
2023/05/23 06:20:00;;;;;;;4.30;2.72;;;18.90;99.90;19.10;100127.00;;;;4983508;27;88183;-69
2023/05/23 06:22:25;;;;;;;4.05;2.17;;;19.00;99.90;19.30;100131.00;;;;5002692;27;108303;-69
2023/05/23 06:24:51;;;;;;;2.15;1.95;;;19.10;99.90;19.50;100136.00;;;;4998492;27;117448;-69
2023/05/23 06:27:17;;;;;;;4.55;2.53;;;19.30;99.90;19.70;100136.00;;;;5001317;27;117757;-68
2023/05/23 06:29:43;;;;;;;2.65;2.45;;;19.50;99.90;19.80;100129.00;;;;4987099;27;110136;-70
2023/05/23 06:32:08;;;;;;;3.00;2.78;;;19.60;99.90;19.90;100138.00;;;;5000867;27;94702;-70
2023/05/23 06:34:34;;;;;;;2.58;2.35;;;19.70;99.90;20.00;100138.00;;;;5001323;27;88091;-69
2023/05/23 06:37:00;;;;;;;3.15;2.85;;;19.80;99.90;20.10;100137.00;;;;5002807;27;88246;-68
2023/05/23 06:39:25;;;;;;;7.35;3.20;;;19.90;99.90;20.20;100134.00;;;;5001396;27;88912;-69
2023/05/23 06:41:53;;;;;;;4.05;2.97;;;20.10;99.90;20.30;100139.00;;;;5000420;27;88204;-69
2023/05/23 06:44:18;;;;;;;3.25;2.65;;;20.10;99.80;20.40;100134.00;;;;4998759;27;104755;-68
2023/05/23 06:46:47;;;;;;;5.15;3.05;;;20.20;99.20;20.40;100140.00;;;;4997631;27;117551;-69
2023/05/23 06:49:14;;;;;;;6.30;3.03;;;20.20;98.80;20.40;100132.00;;;;4983132;27;110802;-70
2023/05/23 06:51:40;;;;;;;3.42;2.70;;;20.20;98.60;20.50;100143.00;;;;5003528;27;87916;-69
2023/05/23 06:54:06;;;;;;;4.43;2.92;;;20.30;98.30;20.50;100139.00;;;;5000653;27;88107;-69
2023/05/23 06:56:31;;;;;;;4.75;2.70;;;20.30;97.80;20.50;100146.00;;;;5004164;27;87305;-69
2023/05/23 06:58:57;;;;;;;12.32;3.83;;;20.30;97.50;20.40;100147.00;;;;5003949;27;110686;-68
2023/05/23 07:01:23;;;;;;;7.40;3.15;;;20.30;97.20;20.30;100138.00;;;;5006424;27;88258;-70
2023/05/23 07:03:48;;;;;;;3.42;2.05;;;20.20;96.50;20.30;100148.00;;;;5002508;27;113666;-70
2023/05/23 07:06:14;;;;;;;3.38;3.08;;;20.20;96.50;20.30;100142.00;;;;4997383;27;118856;-69
2023/05/23 07:08:40;;;;;;;3.33;2.55;;;20.20;95.90;20.30;100137.00;;;;4989237;27;88002;-68
2023/05/23 07:11:05;;;;;;;4.68;2.58;;;20.20;95.60;20.40;100154.00;;;;5002450;27;104854;-70
2023/05/23 07:13:31;;;;;;;3.65;2.47;;;20.20;95.50;20.50;100141.00;;;;5002590;27;88017;-69
2023/05/23 07:15:57;;;;;;;3.03;2.63;;;20.30;95.40;20.60;100147.00;;;;4993894;27;109298;-69
2023/05/23 07:18:23;;;;;;;5.40;2.60;;;20.40;94.80;20.70;100144.00;;;;5003524;27;111562;-69
2023/05/23 07:20:49;;;;;;;3.30;2.63;;;20.50;94.20;20.90;100146.00;;;;5003207;27;88979;-67
2023/05/23 07:23:15;;;;;;;5.10;3.03;;;20.60;94.20;21.20;100147.00;;;;5002111;27;102826;-68
2023/05/23 07:25:41;;;;;;;2.40;2.20;;;20.90;93.90;21.50;100147.00;;;;5005358;27;88406;-69
2023/05/23 07:28:08;;;;;;;6.38;2.33;;;21.20;93.10;21.70;100151.00;;;;4985151;27;88688;-71
2023/05/23 07:30:33;;;;;;;3.28;2.92;;;21.40;92.20;22.00;100151.00;;;;5005073;27;88088;-69
2023/05/23 07:32:59;;;;;;;2.80;2.03;;;21.70;91.40;22.30;100145.00;;;;5003172;27;96379;-69
2023/05/23 07:35:25;;;;;;;3.75;2.60;;;22.00;90.10;22.50;100152.00;;;;4995908;27;94990;-70
2023/05/23 07:37:54;;;;;;;3.67;2.17;;;22.30;89.00;22.80;100147.00;;;;5005118;27;88017;-70
2023/05/23 07:40:21;;;;;;;2.47;1.90;;;22.50;85.80;22.90;100147.00;;;;4990215;27;91859;-70
2023/05/23 07:42:47;;;;;;;2.10;1.73;;;22.60;84.00;23.10;100155.00;;;;5002841;27;88136;-70
2023/05/23 07:45:13;;;;;;;1.92;1.67;;;22.80;83.20;23.30;100154.00;;;;5001796;27;117570;-69
2023/05/23 07:47:40;;;;;;;4.00;2.60;;;23.00;80.80;23.60;100155.00;;;;5004237;27;104323;-70
2023/05/23 07:50:07;;;;;;;5.10;2.42;;;23.30;80.10;23.80;100147.00;;;;4999657;27;102059;-70
2023/05/23 07:52:32;;;;;;;2.33;1.70;;;23.50;76.30;23.90;100150.00;;;;4985732;27;91311;-71
2023/05/23 07:54:58;;;;;;;5.68;2.75;;;23.70;75.00;23.90;100159.00;;;;5000671;27;117889;-68
2023/05/23 07:57:24;;;;;;;4.32;2.38;;;23.70;71.90;23.80;100162.00;;;;5005743;27;87928;-68
2023/05/23 07:59:51;;;;;;;2.28;1.65;;;23.70;71.00;23.70;100159.00;;;;5002933;27;88041;-68
2023/05/23 08:02:17;;;;;;;4.88;2.47;;;23.60;69.20;23.60;100168.00;;;;5004583;27;111851;-68
2023/05/23 08:04:44;;;;;;;2.45;2.25;;;23.50;70.00;23.70;100180.00;;;;4999989;27;88690;-71
2023/05/23 08:07:10;;;;;;;3.35;2.22;;;23.50;70.70;23.70;100175.00;;;;4987027;27;88018;-70
2023/05/23 08:09:39;;;;;;;3.17;2.28;;;23.60;69.80;23.70;100181.00;;;;4991875;27;87090;-70
2023/05/23 08:12:06;;;;;;;2.72;2.22;;;23.60;70.30;23.90;100182.00;;;;4992023;27;88036;-70
2023/05/23 08:14:32;;;;;;;4.20;3.00;;;23.70;69.40;24.10;100184.00;;;;5002765;27;88974;-68
2023/05/23 08:16:57;;;;;;;2.15;1.95;;;23.80;69.80;24.40;100183.00;;;;5003193;27;89106;-70
2023/05/23 08:19:23;;;;;;;2.38;1.73;;;24.10;69.80;24.70;100188.00;;;;4989712;27;107332;-70
2023/05/23 08:21:49;;;;;;;4.13;2.30;;;24.30;67.90;24.70;100180.00;;;;5003487;27;117840;-69
2023/05/23 08:24:15;;;;;;;3.30;2.20;;;24.50;63.40;24.80;100178.00;;;;5002765;27;88828;-69
2023/05/23 08:26:40;;;;;;;2.50;2.20;;;24.60;63.60;24.90;100186.00;;;;5003144;27;87901;-70
2023/05/23 08:29:08;;;;;;;4.57;2.08;;;24.70;62.80;25.00;100180.00;;;;5004060;27;88224;-68
2023/05/23 08:31:34;;;;;;;2.88;2.03;;;24.80;61.60;25.10;100165.00;;;;5001440;27;89202;-69
2023/05/23 08:34:00;;;;;;;4.07;2.40;;;24.80;61.60;25.10;100168.00;;;;5003410;27;87472;-69
2023/05/23 08:36:25;;;;;;;3.30;1.92;;;24.90;61.00;25.20;100177.00;;;;5004703;27;87869;-70
2023/05/23 08:38:51;;;;;;;1.88;1.70;;;25.00;60.90;25.30;100186.00;;;;5001857;27;100831;-69
2023/05/23 08:41:23;;;;;;;3.00;2.10;;;25.10;60.50;25.40;100173.00;;;;4999686;27;118836;-69
2023/05/23 08:43:49;;;;;;;6.88;2.50;;;25.10;60.50;25.60;100188.00;;;;4990736;27;89198;-69
2023/05/23 08:46:15;;;;;;;2.20;1.73;;;25.30;61.00;25.90;100186.00;;;;5003409;27;87975;-70
2023/05/23 08:48:42;;;;;;;3.35;1.90;;;25.60;60.80;26.10;100189.00;;;;5001573;27;106831;-70
2023/05/23 08:51:14;;;;;;;3.40;1.85;;;25.80;60.50;26.40;100188.00;;;;4995119;27;89136;-70
2023/05/23 08:53:43;;;;;;;3.92;2.08;;;26.10;59.80;26.70;100195.00;;;;4964026;27;112672;-73
2023/05/23 08:56:09;;;;;;;2.50;1.70;;;26.40;58.70;27.00;100195.00;;;;4986229;27;88008;-73
2023/05/23 08:58:35;;;;;;;3.15;2.58;;;26.60;58.20;27.30;100197.00;;;;4986111;27;108608;-73
2023/05/23 09:01:01;;;;;;;2.75;2.00;;;26.90;57.60;27.50;100199.00;;;;4963515;28;88534;-73
2023/05/23 09:03:28;;;;;;;3.25;2.13;;;27.20;57.20;27.70;100199.00;;;;4982503;27;116023;-71
2023/05/23 09:05:54;;;;;;;4.47;2.53;;;27.30;56.00;27.70;100198.00;;;;4982165;27;88940;-71
2023/05/23 09:08:20;;;;;;;2.78;2.20;;;27.40;55.50;27.60;100205.00;;;;4980982;27;108372;-72
2023/05/23 09:10:50;;;;;;;5.88;2.83;;;27.40;54.90;27.60;100216.00;;;;4985587;27;89110;-72
2023/05/23 09:13:19;;;;;;;2.90;2.40;;;27.40;55.00;27.40;100208.00;;;;4985983;27;87903;-72
2023/05/23 09:16:09;;;;;;;3.40;2.15;;;27.30;55.20;27.20;100205.00;;;;4983805;27;88351;-73
2023/05/23 09:18:41;;;;;;;3.35;2.10;;;27.10;55.50;27.10;100217.00;;;;4970003;28;89055;-73
2023/05/23 09:21:11;;;;;;;4.80;2.83;;;27.00;55.50;26.80;100218.00;;;;4978706;28;88956;-72
2023/05/23 09:23:40;;;;;;;6.18;1.95;;;26.70;55.60;26.50;100215.00;;;;4980804;27;89983;-73
2023/05/23 09:26:08;;;;;;;2.38;1.77;;;26.50;55.80;26.30;100226.00;;;;4980736;27;87655;-71
2023/05/23 09:28:35;;;;;;;4.10;2.50;;;26.20;56.20;26.00;100218.00;;;;4983313;28;88059;-72
2023/05/23 09:31:06;;;;;;;5.68;3.25;;;26.00;56.70;25.70;100221.00;;;;4983981;27;89205;-71
2023/05/23 09:33:39;;;;;;;3.72;2.90;;;25.60;57.20;25.30;100227.00;;;;4980528;28;112678;-73
2023/05/23 09:36:06;;;;;;;2.85;2.10;;;25.30;57.90;25.10;100222.00;;;;4944944;28;87649;-72
2023/05/23 09:38:37;;;;;;;2.35;2.15;;;25.10;58.40;24.90;100232.00;;;;4980333;27;88131;-71
2023/05/23 09:41:03;;;;;;;1.70;1.60;;;24.80;58.40;24.80;100225.00;;;;4977672;27;109393;-73
2023/05/23 09:43:29;;;;;;;5.63;2.20;;;24.70;58.40;24.90;100226.00;;;;4981972;28;88995;-71
2023/05/23 09:45:59;;;;;;;3.30;2.40;;;24.60;58.60;25.10;100223.00;;;;4982716;28;87771;-73
2023/05/23 09:48:29;;;;;;;3.00;2.15;;;24.80;58.80;25.50;100219.00;;;;4981827;28;96943;-73
2023/05/23 09:50:55;;;;;;;3.83;2.28;;;25.10;58.80;25.80;100218.00;;;;4983121;27;89021;-73
2023/05/23 09:53:21;;;;;;;9.57;2.13;;;25.40;58.50;26.00;100225.00;;;;5000621;27;98869;-72
2023/05/23 09:55:53;;;;;;;2.83;2.08;;;25.60;57.90;26.00;100228.00;;;;4989134;27;89238;-72
2023/05/23 09:58:19;;;;;;;4.00;2.30;;;25.60;57.50;25.80;100228.00;;;;5000030;27;87940;-72
2023/05/23 10:00:50;;;;;;;2.80;2.03;;;25.60;57.70;25.70;100231.00;;;;4971984;27;91181;-72
2023/05/23 10:03:16;;;;;;;5.63;1.92;;;25.40;58.00;25.60;100221.00;;;;4985010;27;88713;-71
2023/05/23 10:05:51;;;;;;;2.85;1.83;;;25.40;58.60;25.50;100233.00;;;;4986884;27;88014;-72
2023/05/23 10:08:36;;;;;;;2.38;2.08;;;25.30;59.10;25.40;100230.00;;;;4998890;27;88202;-73
2023/05/23 10:11:13;;;;;;;2.90;2.10;;;25.20;59.50;25.20;100225.00;;;;4989549;27;88247;-71
2023/05/23 10:13:50;;;;;;;3.05;2.38;;;25.00;59.60;25.00;100239.00;;;;5001771;27;87837;-72
2023/05/23 10:16:28;;;;;;;6.45;3.88;;;24.80;61.70;24.70;100247.00;;;;4989569;27;87767;-72
2023/05/23 10:18:59;;;;;;;6.47;4.97;;;24.60;63.90;24.40;100257.00;;;;4991107;27;88171;-73
2023/05/23 10:21:34;;;;;;;8.38;5.20;;;24.40;66.60;24.10;100242.00;;;;4988336;27;89302;-71
2023/05/23 10:24:02;;;;;;;7.95;5.07;;;24.10;68.30;23.90;100236.00;;;;4986489;27;89429;-71
2023/05/23 10:26:28;;;;;;;15.50;5.07;;;23.80;70.00;23.90;100250.00;;;;5001113;27;104819;-71
2023/05/23 10:28:56;;;;;;;7.00;4.03;;;23.70;71.50;24.10;100249.00;;;;4984813;27;108908;-74
2023/05/23 10:31:23;;;;;;;7.22;4.20;;;23.80;72.30;24.20;100249.00;;;;4988442;27;99329;-72
2023/05/23 10:34:02;;;;;;;5.15;4.68;;;23.90;72.70;24.10;100259.00;;;;4973063;28;89197;-71
2023/05/23 10:36:39;;;;;;;10.88;4.93;;;23.90;72.50;24.00;100252.00;;;;4986468;27;87992;-71
2023/05/23 10:39:49;;;;;;;7.22;5.22;;;23.80;72.80;23.90;100261.00;;;;4991687;27;93603;-71
2023/05/23 10:43:06;;;;;;;7.30;4.70;;;23.70;73.50;23.90;100269.00;;;;5001342;27;88618;-71
2023/05/23 10:45:43;;;;;;;6.45;4.25;;;23.70;73.90;23.90;100263.00;;;;4987482;27;111378;-70
2023/05/23 10:48:27;;;;;;;4.45;4.05;;;23.70;73.80;23.90;100259.00;;;;4996992;27;89200;-70